createdAt,value
2018-05-08T04:02:08.846Z,2.70
2018-05-08T04:04:47.095Z,2.80
2018-05-08T04:07:26.063Z,3.30
2018-05-08T04:09:51.846Z,3.20
2018-05-08T04:12:17.625Z,4.03
2018-05-08T04:14:43.381Z,3.00
2018-05-08T04:17:09.158Z,3.07
2018-05-08T04:19:34.930Z,3.70
2018-05-08T04:22:00.697Z,2.90
2018-05-08T04:24:26.478Z,3.20
2018-05-08T04:26:52.257Z,3.30
2018-05-08T04:29:18.030Z,3.70
2018-05-08T04:31:43.826Z,3.03
2018-05-08T04:34:09.594Z,2.80
2018-05-08T04:36:35.381Z,2.97
2018-05-08T04:39:01.146Z,3.40
2018-05-08T04:41:26.901Z,3.27
2018-05-08T04:43:52.661Z,3.10
2018-05-08T04:46:18.435Z,2.83
2018-05-08T04:48:44.213Z,3.00
2018-05-08T04:51:09.984Z,3.33
2018-05-08T04:53:35.786Z,2.63
2018-05-08T04:56:01.554Z,3.40
2018-05-08T04:58:28.216Z,2.80
2018-05-08T05:00:53.982Z,3.03
2018-05-08T05:03:19.752Z,2.87
2018-05-08T05:05:45.542Z,3.43
2018-05-08T05:08:11.322Z,3.53
2018-05-08T05:10:37.099Z,3.50
2018-05-08T05:13:02.870Z,3.00
2018-05-08T05:15:28.727Z,3.10
2018-05-08T05:17:54.516Z,3.70
2018-05-08T05:20:20.298Z,3.47
2018-05-08T05:22:46.065Z,3.27
2018-05-08T05:25:11.961Z,3.50
2018-05-08T05:27:37.731Z,2.97
2018-05-08T05:30:03.544Z,3.90
2018-05-08T05:32:29.302Z,3.33
2018-05-08T05:34:55.107Z,3.20
2018-05-08T05:37:20.914Z,3.13
2018-05-08T05:39:46.670Z,3.77
2018-05-08T05:42:12.554Z,2.87
2018-05-08T05:44:38.334Z,3.10
2018-05-08T05:47:04.134Z,3.30
2018-05-08T05:49:29.911Z,3.00
2018-05-08T05:51:55.701Z,3.07
2018-05-08T05:54:21.487Z,3.50
2018-05-08T05:56:47.266Z,2.90
2018-05-08T05:59:13.325Z,3.00
2018-05-08T06:01:39.125Z,2.97
2018-05-08T06:04:04.902Z,3.90
2018-05-08T06:06:30.749Z,2.93
2018-05-08T06:08:56.477Z,3.40
2018-05-08T06:11:22.234Z,3.33
2018-05-08T06:13:49.334Z,3.50
2018-05-08T06:16:15.096Z,3.60
2018-05-08T06:18:40.862Z,3.27
2018-05-08T06:21:06.628Z,3.07
2018-05-08T06:23:32.429Z,3.17
2018-05-08T06:25:58.201Z,2.73
2018-05-08T06:28:24.000Z,3.00
2018-05-08T06:30:49.815Z,2.80
2018-05-08T06:33:15.591Z,3.80
2018-05-08T06:35:41.377Z,3.10
2018-05-08T06:38:07.153Z,3.30
2018-05-08T06:40:32.982Z,3.57
2018-05-08T06:42:58.767Z,2.80
2018-05-08T06:45:24.575Z,3.20
2018-05-08T06:47:50.377Z,3.23
2018-05-08T06:50:16.177Z,2.73
2018-05-08T06:52:41.916Z,2.97
2018-05-08T06:55:07.697Z,3.30
2018-05-08T06:57:33.461Z,3.47
2018-05-08T06:59:59.234Z,3.30
2018-05-08T07:02:25.004Z,3.33
2018-05-08T07:04:50.777Z,2.73
2018-05-08T07:07:16.541Z,3.30
2018-05-08T07:09:42.329Z,3.40
2018-05-08T07:12:08.117Z,3.17
2018-05-08T07:14:33.890Z,3.13
2018-05-08T07:16:59.645Z,3.13
2018-05-08T07:19:25.466Z,3.73
2018-05-08T07:21:51.210Z,4.30
2018-05-08T07:24:16.977Z,3.37
2018-05-08T07:26:42.738Z,4.50
2018-05-08T07:29:08.521Z,4.00
2018-05-08T07:31:34.302Z,3.20
2018-05-08T07:34:00.066Z,3.43
2018-05-08T07:36:25.864Z,3.30
2018-05-08T07:38:51.662Z,2.93
2018-05-08T07:41:17.474Z,4.33
2018-05-08T07:43:43.249Z,3.90
2018-05-08T07:46:09.030Z,3.40
2018-05-08T07:48:34.801Z,2.90
2018-05-08T07:51:00.581Z,3.40
2018-05-08T07:53:26.357Z,2.77
2018-05-08T07:55:52.138Z,3.23
2018-05-08T07:58:17.911Z,3.20
2018-05-08T08:00:43.699Z,3.43
2018-05-08T08:03:09.523Z,3.13
2018-05-08T08:05:35.311Z,3.17
2018-05-08T08:08:01.098Z,3.20
2018-05-08T08:10:26.883Z,3.10
2018-05-08T08:12:52.653Z,2.80
2018-05-08T08:15:18.430Z,2.50
2018-05-08T08:17:44.213Z,2.70
2018-05-08T08:20:09.982Z,3.10
2018-05-08T08:22:35.747Z,2.70
2018-05-08T08:25:01.525Z,3.23
2018-05-08T08:27:27.305Z,2.80
2018-05-08T08:29:53.077Z,2.80
2018-05-08T08:32:18.861Z,3.50
2018-05-08T08:34:44.636Z,3.30
2018-05-08T08:37:10.419Z,3.13
2018-05-08T08:39:36.199Z,3.13
2018-05-08T08:42:01.984Z,2.83
2018-05-08T08:44:27.777Z,2.93
2018-05-08T08:46:53.615Z,3.10
2018-05-08T08:49:19.385Z,3.20
2018-05-08T08:51:45.146Z,2.43
2018-05-08T08:54:10.926Z,2.80
2018-05-08T08:56:36.713Z,2.40
2018-05-08T08:59:02.534Z,2.73
2018-05-08T09:01:28.306Z,2.83
2018-05-08T09:03:54.090Z,3.20
2018-05-08T09:06:19.906Z,2.80
2018-05-08T09:08:45.698Z,3.03
2018-05-08T09:11:11.471Z,2.90
2018-05-08T09:13:37.295Z,3.60
2018-05-08T09:16:03.082Z,3.23
2018-05-08T09:18:28.859Z,3.10
2018-05-08T09:20:54.629Z,2.80
2018-05-08T09:23:20.413Z,2.80
2018-05-08T09:25:46.186Z,3.00
2018-05-08T09:28:11.993Z,2.90
2018-05-08T09:30:37.765Z,2.70
2018-05-08T09:33:04.350Z,3.53
2018-05-08T09:35:30.139Z,2.43
2018-05-08T09:37:55.919Z,3.10
2018-05-08T09:40:21.738Z,2.63
2018-05-08T09:42:47.515Z,3.00
2018-05-08T09:45:13.294Z,3.53
2018-05-08T09:47:39.071Z,3.40
2018-05-08T09:50:04.845Z,2.87
2018-05-08T09:52:30.621Z,2.97
2018-05-08T09:54:56.391Z,3.30
2018-05-08T09:57:22.167Z,3.90
2018-05-08T09:59:47.965Z,2.80
2018-05-08T10:02:13.738Z,3.23
2018-05-08T10:04:39.522Z,2.70
2018-05-08T10:07:05.286Z,3.30
2018-05-08T10:09:31.083Z,3.00
2018-05-08T10:11:56.857Z,3.20
2018-05-08T10:14:22.639Z,3.33
2018-05-08T10:16:48.422Z,3.43
2018-05-08T10:19:14.201Z,3.50
2018-05-08T10:21:39.997Z,2.87
2018-05-08T10:24:05.792Z,3.23
2018-05-08T10:26:31.579Z,3.20
2018-05-08T10:28:57.378Z,4.13
2018-05-08T10:31:23.153Z,3.30
2018-05-08T10:33:48.930Z,2.63
2018-05-08T10:36:14.706Z,3.57
2018-05-08T10:38:40.481Z,3.23
2018-05-08T10:41:06.262Z,3.97
2018-05-08T10:43:32.044Z,2.63
2018-05-08T10:45:57.819Z,2.97
2018-05-08T10:48:23.585Z,2.63
2018-05-08T10:50:49.418Z,3.10
2018-05-08T10:53:15.191Z,2.33
2018-05-08T10:55:41.002Z,2.90
2018-05-08T10:58:06.786Z,2.70
2018-05-08T11:00:32.556Z,2.47
2018-05-08T11:02:58.339Z,3.03
2018-05-08T11:05:24.102Z,3.10
2018-05-08T11:07:49.869Z,2.77
2018-05-08T11:10:15.634Z,3.27
2018-05-08T11:12:41.421Z,2.50
2018-05-08T11:15:07.194Z,2.50
2018-05-08T11:17:32.970Z,2.80
2018-05-08T11:19:58.750Z,3.03
2018-05-08T11:22:24.517Z,2.50
2018-05-08T11:24:50.284Z,2.70
2018-05-08T11:27:16.052Z,2.60
2018-05-08T11:29:41.806Z,2.47
2018-05-08T11:32:07.591Z,2.50
2018-05-08T11:34:33.400Z,2.30
2018-05-08T11:36:59.166Z,2.57
2018-05-08T11:39:24.965Z,2.40
2018-05-08T11:41:50.750Z,2.10
2018-05-08T11:44:16.515Z,2.27
2018-05-08T11:46:42.278Z,2.60
2018-05-08T11:49:08.049Z,2.40
2018-05-08T11:51:33.815Z,2.93
2018-05-08T11:53:59.585Z,2.80
2018-05-08T11:56:25.337Z,2.40
2018-05-08T11:58:51.102Z,2.40
2018-05-08T12:01:16.914Z,2.50
2018-05-08T12:03:42.698Z,2.60
2018-05-08T12:06:08.464Z,2.60
2018-05-08T12:08:34.237Z,2.70
2018-05-08T12:11:00.006Z,2.80
2018-05-08T12:13:25.783Z,2.53
2018-05-08T12:15:51.543Z,2.53
2018-05-08T12:18:17.416Z,3.00
2018-05-08T12:20:43.109Z,2.60
2018-05-08T12:23:08.890Z,2.63
2018-05-08T12:25:34.661Z,2.30
2018-05-08T12:28:00.426Z,2.73
2018-05-08T12:30:26.197Z,2.90
2018-05-08T12:32:51.962Z,2.33
2018-05-08T12:35:17.744Z,3.10
2018-05-08T12:37:43.501Z,2.40
2018-05-08T12:40:09.276Z,2.40
2018-05-08T12:42:35.046Z,2.73
2018-05-08T12:45:00.830Z,2.70
2018-05-08T12:47:26.623Z,3.53
2018-05-08T12:49:53.329Z,2.60
2018-05-08T12:52:19.094Z,2.63
2018-05-08T12:54:44.898Z,2.47
2018-05-08T12:57:10.670Z,2.60
2018-05-08T12:59:36.449Z,2.70
2018-05-08T13:02:02.221Z,2.90
2018-05-08T13:04:28.045Z,2.77
2018-05-08T13:06:53.818Z,2.27
2018-05-08T13:09:19.586Z,2.50
2018-05-08T13:11:45.366Z,2.30
2018-05-08T13:14:11.134Z,2.40
2018-05-08T13:16:36.902Z,2.40
2018-05-08T13:19:02.674Z,2.40
2018-05-08T13:21:28.441Z,2.60
2018-05-08T13:23:54.228Z,2.40
2018-05-08T13:26:19.994Z,2.60
2018-05-08T13:28:45.802Z,2.37
2018-05-08T13:31:11.632Z,2.77
2018-05-08T13:33:37.406Z,2.30
2018-05-08T13:36:03.182Z,2.87
2018-05-08T13:38:28.951Z,2.50
2018-05-08T13:40:55.503Z,3.47
2018-05-08T13:43:21.273Z,2.60
2018-05-08T13:45:47.037Z,2.20
2018-05-08T13:48:12.851Z,2.67
2018-05-08T13:50:42.567Z,2.07
2018-05-08T13:53:08.347Z,2.73
2018-05-08T13:55:34.128Z,2.37
2018-05-08T13:57:59.917Z,2.50
2018-05-08T14:00:25.678Z,2.40
2018-05-08T14:02:51.455Z,2.50
2018-05-08T14:05:17.222Z,2.90
2018-05-08T14:07:43.002Z,2.70
2018-05-08T14:10:08.777Z,2.90
2018-05-08T14:12:34.554Z,2.80
2018-05-08T14:15:00.329Z,3.10
2018-05-08T14:17:26.127Z,2.80
2018-05-08T14:19:51.919Z,2.93
2018-05-08T14:22:17.682Z,3.07
2018-05-08T14:24:43.454Z,2.60
2018-05-08T14:27:09.238Z,2.90
2018-05-08T14:29:35.017Z,3.33
2018-05-08T14:32:00.780Z,3.43
2018-05-08T14:34:26.567Z,3.63
2018-05-08T14:36:52.334Z,3.57
2018-05-08T14:39:18.125Z,4.10
2018-05-08T14:41:43.912Z,3.50
2018-05-08T14:44:09.702Z,3.57
2018-05-08T14:46:35.480Z,3.80
2018-05-08T14:49:01.269Z,3.30
2018-05-08T14:51:27.065Z,3.20
2018-05-08T14:53:52.849Z,3.40
2018-05-08T14:56:18.621Z,3.07
2018-05-08T14:58:44.389Z,3.17
2018-05-08T15:01:10.270Z,3.63
2018-05-08T15:03:36.049Z,4.30
2018-05-08T15:06:01.819Z,3.77
2018-05-08T15:08:27.571Z,3.60
2018-05-08T15:10:53.350Z,3.87
2018-05-08T15:13:19.130Z,2.73
2018-05-08T15:15:44.901Z,3.60
2018-05-08T15:18:10.690Z,3.80
2018-05-08T15:20:36.465Z,3.93
2018-05-08T15:23:02.264Z,3.40
2018-05-08T15:25:28.078Z,3.03
2018-05-08T15:27:53.853Z,3.27
2018-05-08T15:30:19.717Z,3.33
2018-05-08T15:32:45.498Z,3.00
2018-05-08T15:35:11.338Z,3.30
2018-05-08T15:37:37.097Z,3.73
2018-05-08T15:40:02.902Z,3.50
2018-05-08T15:42:28.674Z,3.20
2018-05-08T15:44:54.501Z,3.77
2018-05-08T15:47:20.401Z,3.30
2018-05-08T15:49:46.137Z,3.30
2018-05-08T15:52:11.909Z,3.33
2018-05-08T15:54:37.690Z,3.30
2018-05-08T15:57:03.465Z,3.47
2018-05-08T15:59:29.237Z,3.50
2018-05-08T16:01:55.029Z,3.57
2018-05-08T16:04:20.797Z,3.20
2018-05-08T16:06:46.579Z,3.60
2018-05-08T16:09:12.364Z,3.83
2018-05-08T16:11:38.170Z,3.80
2018-05-08T16:14:03.906Z,3.73
2018-05-08T16:16:29.682Z,3.87
2018-05-08T16:18:55.485Z,3.27
2018-05-08T16:21:21.332Z,3.63
2018-05-08T16:23:53.249Z,4.00
2018-05-08T16:26:19.298Z,3.47
2018-05-08T16:28:53.254Z,3.37
2018-05-08T16:31:33.976Z,3.40
2018-05-08T16:33:59.759Z,3.23
2018-05-08T16:36:25.539Z,3.53
2018-05-08T16:38:51.333Z,3.53
2018-05-08T16:41:17.165Z,4.10
2018-05-08T16:43:42.953Z,3.40
2018-05-08T16:46:08.733Z,3.67
2018-05-08T16:48:34.533Z,3.97
2018-05-08T16:51:00.327Z,3.47
2018-05-08T16:53:26.142Z,3.10
2018-05-08T16:55:51.945Z,3.43
2018-05-08T16:58:17.714Z,3.60
2018-05-08T17:00:43.482Z,4.20
2018-05-08T17:03:09.253Z,3.00
2018-05-08T17:05:35.024Z,3.97
2018-05-08T17:08:00.802Z,4.00
2018-05-08T17:10:26.609Z,4.10
2018-05-08T17:12:52.358Z,3.90
2018-05-08T17:15:18.125Z,3.80
2018-05-08T17:17:43.915Z,3.57
2018-05-08T17:20:09.686Z,4.60
2018-05-08T17:22:35.546Z,3.80
2018-05-08T17:25:01.330Z,4.10
2018-05-08T17:27:27.102Z,3.50
2018-05-08T17:29:52.881Z,4.20
2018-05-08T17:32:18.653Z,3.63
2018-05-08T17:34:44.422Z,3.40
2018-05-08T17:37:10.195Z,3.97
2018-05-08T17:39:35.966Z,3.67
2018-05-08T17:42:01.754Z,3.60
2018-05-08T17:44:27.523Z,3.70
2018-05-08T17:46:53.308Z,3.70
2018-05-08T17:49:19.122Z,3.90
2018-05-08T17:51:44.894Z,4.40
2018-05-08T17:54:10.658Z,4.03
2018-05-08T17:56:36.431Z,4.20
2018-05-08T17:59:02.231Z,5.17
2018-05-08T18:01:28.055Z,5.83
2018-05-08T18:03:53.838Z,4.10
2018-05-08T18:06:19.634Z,4.43
2018-05-08T18:08:46.086Z,3.70
2018-05-08T18:11:11.882Z,4.47
2018-05-08T18:13:37.677Z,4.40
2018-05-08T18:16:03.494Z,4.10
2018-05-08T18:18:29.276Z,4.30
2018-05-08T18:20:55.051Z,4.10
2018-05-08T18:23:20.848Z,5.20
2018-05-08T18:25:46.638Z,4.40
2018-05-08T18:28:12.411Z,3.90
2018-05-08T18:30:38.230Z,4.57
2018-05-08T18:33:04.104Z,4.23
2018-05-08T18:35:29.956Z,4.30
2018-05-08T18:37:55.740Z,4.10
2018-05-08T18:40:22.553Z,4.47
2018-05-08T18:42:48.326Z,4.03
2018-05-08T18:45:14.108Z,4.07
2018-05-08T18:47:39.938Z,4.13
2018-05-08T18:50:06.410Z,4.60
2018-05-08T18:52:32.259Z,4.30
2018-05-08T18:54:58.023Z,4.63
2018-05-08T18:57:23.824Z,4.93
2018-05-08T18:59:49.633Z,5.53
2018-05-08T19:02:15.485Z,4.87
2018-05-08T19:04:41.283Z,4.40
2018-05-08T19:07:07.130Z,5.23
2018-05-08T19:09:32.878Z,4.93
2018-05-08T19:11:58.712Z,4.50
2018-05-08T19:14:24.491Z,5.03
2018-05-08T19:16:50.295Z,5.33
2018-05-08T19:19:22.264Z,5.20
2018-05-08T19:21:48.059Z,5.73
2018-05-08T19:24:20.043Z,5.87
2018-05-08T19:26:45.828Z,5.23
2018-05-08T19:29:17.943Z,5.60
2018-05-08T19:31:43.742Z,5.50
2018-05-08T19:34:09.558Z,5.97
2018-05-08T19:36:41.419Z,5.80
2018-05-08T19:39:07.228Z,5.90
2018-05-08T19:41:33.006Z,6.20
2018-05-08T19:43:58.856Z,5.70
2018-05-08T19:46:24.701Z,6.50
2018-05-08T19:48:50.493Z,6.00
2018-05-08T19:51:16.254Z,5.80
2018-05-08T19:53:42.017Z,6.73
2018-05-08T19:56:07.880Z,5.23
2018-05-08T19:58:33.662Z,6.30
2018-05-08T20:00:59.435Z,6.60
2018-05-08T20:03:25.206Z,5.73
2018-05-08T20:05:50.990Z,5.67
2018-05-08T20:08:16.749Z,5.70
2018-05-08T20:10:42.510Z,6.80
2018-05-08T20:13:08.280Z,6.30
2018-05-08T20:15:34.058Z,6.70
2018-05-08T20:17:59.881Z,6.40
2018-05-08T20:20:25.661Z,6.07
2018-05-08T20:22:51.423Z,5.73
2018-05-08T20:25:17.206Z,5.03
2018-05-08T20:27:42.959Z,5.47
2018-05-08T20:30:08.758Z,5.10
2018-05-08T20:32:34.660Z,5.60
2018-05-08T20:35:00.471Z,5.33
2018-05-08T20:37:26.267Z,4.97
2018-05-08T20:39:52.050Z,5.27
2018-05-08T20:42:17.834Z,6.03
2018-05-08T20:44:43.630Z,5.53
2018-05-08T20:47:09.386Z,6.00
2018-05-08T20:49:35.149Z,5.30
2018-05-08T20:52:00.934Z,5.70
2018-05-08T20:54:27.013Z,6.10
2018-05-08T20:56:53.040Z,6.50
2018-05-08T20:59:20.016Z,6.70
2018-05-08T21:01:45.850Z,5.40
2018-05-08T21:04:11.830Z,5.43
2018-05-08T21:06:37.596Z,5.87
2018-05-08T21:09:03.391Z,6.40
2018-05-08T21:11:29.427Z,5.60
2018-05-08T21:13:55.207Z,5.70
2018-05-08T21:18:41.610Z,5.77
2018-05-08T21:21:07.382Z,5.77
2018-05-08T21:23:33.152Z,5.90
2018-05-08T21:25:58.919Z,5.47
2018-05-08T21:28:30.852Z,6.00
2018-05-08T21:31:02.742Z,6.20
2018-05-08T21:33:28.534Z,5.70
2018-05-08T21:35:54.317Z,5.60
2018-05-08T21:38:20.228Z,6.10
2018-05-08T21:40:46.005Z,5.43
2018-05-08T21:43:11.781Z,5.83
2018-05-08T21:45:37.539Z,5.33
2018-05-08T21:48:03.339Z,6.47
2018-05-08T21:50:29.133Z,6.07
2018-05-08T21:52:54.913Z,5.73
2018-05-08T21:55:20.687Z,5.63
2018-05-08T21:57:46.465Z,5.90
2018-05-08T22:00:12.250Z,5.33
2018-05-08T22:02:38.060Z,5.63
2018-05-08T22:05:03.832Z,5.60
2018-05-08T22:07:29.606Z,5.33
2018-05-08T22:09:55.417Z,5.90
2018-05-08T22:12:21.197Z,6.17
2018-05-08T22:14:46.974Z,5.63
2018-05-08T22:17:12.769Z,6.20
2018-05-08T22:19:38.561Z,5.87
2018-05-08T22:22:04.317Z,5.63
2018-05-08T22:24:30.081Z,5.77
2018-05-08T22:26:55.825Z,5.60
2018-05-08T22:29:21.590Z,6.27
2018-05-08T22:31:47.340Z,5.53
2018-05-08T22:34:13.121Z,5.93
2018-05-08T22:36:38.877Z,6.30
2018-05-08T22:39:04.635Z,5.20
2018-05-08T22:41:30.411Z,5.37
2018-05-08T22:43:56.170Z,5.77
2018-05-08T22:46:21.938Z,5.43
2018-05-08T22:48:47.866Z,6.10
2018-05-08T22:51:13.671Z,5.83
2018-05-08T22:53:39.438Z,5.90
2018-05-08T22:56:05.198Z,6.13
2018-05-08T22:58:30.958Z,6.30
2018-05-08T23:00:56.741Z,5.50
2018-05-08T23:03:22.522Z,6.13
2018-05-08T23:05:48.302Z,5.67
2018-05-08T23:08:14.134Z,5.77
2018-05-08T23:10:39.893Z,4.80
2018-05-08T23:13:05.661Z,5.80
2018-05-08T23:15:31.496Z,6.20
2018-05-08T23:17:57.203Z,5.90
2018-05-08T23:20:22.984Z,5.47
2018-05-08T23:22:48.738Z,5.60
2018-05-08T23:25:14.519Z,6.10
2018-05-08T23:27:40.299Z,5.83
2018-05-08T23:30:06.130Z,5.70
2018-05-08T23:32:32.208Z,5.60
2018-05-08T23:34:57.998Z,5.57
2018-05-08T23:37:25.095Z,4.83
2018-05-08T23:39:50.935Z,5.40
2018-05-08T23:42:16.718Z,5.73
2018-05-08T23:44:42.538Z,5.60
2018-05-08T23:47:08.334Z,5.90
2018-05-08T23:49:34.117Z,5.83
2018-05-08T23:51:59.917Z,5.87
2018-05-08T23:54:25.681Z,5.40
2018-05-08T23:56:51.449Z,5.93
2018-05-08T23:59:17.216Z,6.20
